createdAt,value
2022-10-15T04:00:25.100Z,100011.00
2022-10-15T04:02:53.403Z,100013.00
2022-10-15T04:05:21.839Z,100016.00
2022-10-15T04:07:50.455Z,100016.00
2022-10-15T04:10:19.114Z,100018.00
2022-10-15T04:15:45.624Z,100022.00
2022-10-15T04:18:15.252Z,100015.00
2022-10-15T04:20:43.710Z,100024.00
2022-10-15T04:23:12.363Z,100018.00
2022-10-15T04:25:40.761Z,100013.00
2022-10-15T04:28:09.404Z,100018.00
2022-10-15T04:30:37.671Z,100020.00
2022-10-15T04:33:07.411Z,100021.00
2022-10-15T04:35:35.949Z,100023.00
2022-10-15T04:38:04.392Z,100018.00
2022-10-15T04:40:32.649Z,100024.00
2022-10-15T04:43:01.259Z,100026.00
2022-10-15T04:45:29.613Z,100018.00
2022-10-15T04:47:58.668Z,100028.00
2022-10-15T04:50:28.373Z,100022.00
2022-10-15T04:52:56.795Z,100020.00
2022-10-15T04:55:25.182Z,100023.00
2022-10-15T04:57:54.996Z,100029.00
2022-10-15T05:00:23.329Z,100036.00
2022-10-15T05:02:51.637Z,100037.00
2022-10-15T05:05:20.034Z,100035.00
2022-10-15T05:07:50.538Z,100024.00
2022-10-15T05:10:19.075Z,100024.00
2022-10-15T05:12:49.347Z,100029.00
2022-10-15T05:15:19.841Z,100029.00
2022-10-15T05:17:48.300Z,100030.00
2022-10-15T05:20:16.793Z,100022.00
2022-10-15T05:22:45.148Z,100023.00
2022-10-15T05:25:14.938Z,100019.00
2022-10-15T05:27:43.276Z,100029.00
2022-10-15T05:30:12.561Z,100024.00
2022-10-15T05:32:40.893Z,100029.00
2022-10-15T05:35:09.933Z,100031.00
2022-10-15T05:37:38.276Z,100039.00
2022-10-15T05:40:07.492Z,100035.00
2022-10-15T05:42:37.172Z,100043.00
2022-10-15T05:45:06.422Z,100045.00
2022-10-15T05:47:34.753Z,100037.00
2022-10-15T05:50:03.475Z,100048.00
2022-10-15T05:52:33.514Z,100053.00
2022-10-15T05:55:01.781Z,100040.00
2022-10-15T05:57:30.081Z,100047.00
2022-10-15T05:59:59.747Z,100053.00
2022-10-15T06:02:28.843Z,100056.00
2022-10-15T06:04:57.576Z,100062.00
2022-10-15T06:07:26.784Z,100074.00
2022-10-15T06:09:55.068Z,100062.00
2022-10-15T06:12:23.408Z,100069.00
2022-10-15T06:14:51.776Z,100075.00
2022-10-15T06:17:21.783Z,100076.00
2022-10-15T06:19:50.415Z,100076.00
2022-10-15T06:22:18.700Z,100077.00
2022-10-15T06:24:47.051Z,100075.00
2022-10-15T06:27:15.363Z,100089.00
2022-10-15T06:29:43.725Z,100085.00
2022-10-15T06:32:12.472Z,100079.00
2022-10-15T06:34:42.143Z,100086.00
2022-10-15T06:37:10.501Z,100082.00
2022-10-15T06:39:39.700Z,100085.00
2022-10-15T06:42:07.978Z,100086.00
2022-10-15T06:44:36.358Z,100080.00
2022-10-15T06:47:04.318Z,100091.00
2022-10-15T06:49:32.327Z,100092.00
2022-10-15T06:52:03.530Z,100095.00
2022-10-15T06:54:32.024Z,100094.00
2022-10-15T06:56:59.948Z,100105.00
2022-10-15T06:59:27.990Z,100102.00
2022-10-15T07:01:55.973Z,100109.00
2022-10-15T07:04:24.447Z,100115.00
2022-10-15T07:06:52.539Z,100122.00
2022-10-15T07:09:21.877Z,100123.00
2022-10-15T07:11:50.015Z,100118.00
2022-10-15T07:14:18.001Z,100118.00
2022-10-15T07:16:45.936Z,100128.00
2022-10-15T07:19:14.000Z,100138.00
2022-10-15T07:21:41.936Z,100136.00
2022-10-15T07:24:10.082Z,100136.00
2022-10-15T07:26:39.476Z,100142.00
2022-10-15T07:29:07.631Z,100127.00
2022-10-15T07:31:36.409Z,100124.00
2022-10-15T07:34:04.416Z,100131.00
2022-10-15T07:36:32.435Z,100123.00
2022-10-15T07:39:00.356Z,100119.00
2022-10-15T07:41:28.384Z,100124.00
2022-10-15T07:43:57.794Z,100127.00
2022-10-15T07:46:25.759Z,100131.00
2022-10-15T07:48:53.916Z,100126.00
2022-10-15T07:51:21.964Z,100128.00
2022-10-15T07:53:50.116Z,100133.00
2022-10-15T07:56:19.215Z,100132.00
2022-10-15T07:58:51.706Z,100131.00
2022-10-15T08:01:22.773Z,100103.00
2022-10-15T08:03:50.755Z,100130.00
2022-10-15T08:06:19.232Z,100134.00
2022-10-15T08:08:47.690Z,100133.00
2022-10-15T08:11:18.265Z,100127.00
2022-10-15T08:13:48.133Z,100130.00
2022-10-15T08:16:19.505Z,100123.00
2022-10-15T08:18:48.943Z,100138.00
2022-10-15T08:21:17.429Z,100144.00
2022-10-15T08:23:45.471Z,100143.00
2022-10-15T08:26:13.457Z,100149.00
2022-10-15T08:28:41.462Z,100142.00
2022-10-15T08:31:09.529Z,100158.00
2022-10-15T08:33:39.457Z,100154.00
2022-10-15T08:36:09.693Z,100147.00
2022-10-15T08:38:37.672Z,100152.00
2022-10-15T08:41:20.805Z,100159.00
2022-10-15T08:43:49.271Z,100153.00
2022-10-15T08:46:24.601Z,100151.00
2022-10-15T08:48:59.186Z,100156.00
2022-10-15T08:51:40.500Z,100151.00
2022-10-15T08:54:16.820Z,100156.00
2022-10-15T08:56:50.210Z,100156.00
2022-10-15T08:59:32.716Z,100162.00
2022-10-15T09:02:06.161Z,100169.00
2022-10-15T09:04:47.952Z,100167.00
2022-10-15T09:07:27.605Z,100175.00
2022-10-15T09:10:05.723Z,100173.00
2022-10-15T09:12:46.979Z,100179.00
2022-10-15T09:15:22.627Z,100177.00
2022-10-15T09:17:55.787Z,100178.00
2022-10-15T09:20:30.719Z,100185.00
2022-10-15T09:23:00.432Z,100179.00
2022-10-15T09:25:36.751Z,100183.00
2022-10-15T09:28:15.516Z,100173.00
2022-10-15T09:30:51.491Z,100180.00
2022-10-15T09:33:36.176Z,100174.00
2022-10-15T09:36:20.929Z,100168.00
2022-10-15T09:39:05.911Z,100175.00
2022-10-15T09:41:53.659Z,100179.00
2022-10-15T09:44:28.758Z,100190.00
2022-10-15T09:46:56.746Z,100185.00
2022-10-15T09:49:30.271Z,100187.00
2022-10-15T09:52:11.492Z,100190.00
2022-10-15T09:54:55.602Z,100192.00
2022-10-15T09:57:27.329Z,100187.00
2022-10-15T09:59:58.277Z,100189.00
2022-10-15T10:02:27.376Z,100183.00
2022-10-15T10:04:56.861Z,100183.00
2022-10-15T10:07:34.963Z,100184.00
2022-10-15T10:10:22.377Z,100194.00
2022-10-15T10:12:50.531Z,100202.00
2022-10-15T10:15:33.990Z,100200.00
2022-10-15T10:18:05.409Z,100197.00
2022-10-15T10:20:35.021Z,100204.00
2022-10-15T10:23:21.911Z,100201.00
2022-10-15T10:25:51.917Z,100206.00
2022-10-15T10:28:30.477Z,100201.00
2022-10-15T10:31:08.788Z,100209.00
2022-10-15T10:33:45.209Z,100196.00
2022-10-15T10:36:26.713Z,100206.00
2022-10-15T10:39:03.672Z,100204.00
2022-10-15T10:41:51.818Z,100212.00
2022-10-15T10:44:28.701Z,100206.00
2022-10-15T10:47:10.496Z,100202.00
2022-10-15T10:49:41.806Z,100203.00
2022-10-15T10:52:26.452Z,100199.00
2022-10-15T10:55:01.886Z,100208.00
2022-10-15T10:57:43.809Z,100213.00
2022-10-15T11:00:19.558Z,100207.00
2022-10-15T11:02:48.088Z,100214.00
2022-10-15T11:05:26.347Z,100216.00
2022-10-15T11:08:06.339Z,100216.00
2022-10-15T11:10:47.000Z,100217.00
2022-10-15T11:13:50.175Z,100209.00
2022-10-15T11:16:32.820Z,100196.00
2022-10-15T11:19:19.002Z,100205.00
2022-10-15T11:22:09.465Z,100209.00
2022-10-15T11:24:55.712Z,100208.00
2022-10-15T11:27:56.273Z,100210.00
2022-10-15T11:30:49.171Z,100202.00
2022-10-15T11:33:51.931Z,100151.00
2022-10-15T11:36:53.265Z,100204.00
2022-10-15T11:39:40.160Z,100204.00
2022-10-15T11:42:19.071Z,100208.00
2022-10-15T11:45:27.213Z,100200.00
2022-10-15T11:48:05.544Z,100200.00
2022-10-15T11:50:42.080Z,100200.00
2022-10-15T11:53:42.336Z,100201.00
2022-10-15T11:56:17.923Z,100196.00
2022-10-15T11:58:52.199Z,100201.00
2022-10-15T12:01:28.142Z,100200.00
2022-10-15T12:04:11.248Z,100204.00
2022-10-15T12:06:46.206Z,100197.00
2022-10-15T12:09:22.267Z,100198.00
2022-10-15T12:12:00.754Z,100199.00
2022-10-15T12:14:42.454Z,100194.00
2022-10-15T12:17:21.507Z,100189.00
2022-10-15T12:19:56.324Z,100197.00
2022-10-15T12:22:37.763Z,100194.00
2022-10-15T12:25:08.223Z,100197.00
2022-10-15T12:27:38.117Z,100194.00
2022-10-15T12:30:27.549Z,100201.00
2022-10-15T12:32:56.353Z,100200.00
2022-10-15T12:35:43.824Z,100205.00
2022-10-15T12:38:25.838Z,100204.00
2022-10-15T12:41:02.321Z,100205.00
2022-10-15T12:43:33.979Z,100215.00
2022-10-15T12:46:05.972Z,100210.00
2022-10-15T12:48:39.377Z,100205.00
2022-10-15T12:51:42.426Z,100211.00
2022-10-15T12:54:37.950Z,100204.00
2022-10-15T12:57:52.967Z,100202.00
2022-10-15T13:00:43.341Z,100196.00
2022-10-15T13:03:24.420Z,100203.00
2022-10-15T13:05:55.131Z,100192.00
2022-10-15T13:08:30.305Z,100193.00
2022-10-15T13:11:01.423Z,100200.00
2022-10-15T13:13:33.506Z,100193.00
2022-10-15T13:16:07.920Z,100188.00
2022-10-15T13:18:37.068Z,100187.00
2022-10-15T13:21:06.769Z,100193.00
2022-10-15T13:23:38.083Z,100199.00
2022-10-15T13:26:17.931Z,100199.00
2022-10-15T13:28:48.807Z,100193.00
2022-10-15T13:31:27.448Z,100195.00
2022-10-15T13:34:04.313Z,100198.00
2022-10-15T13:36:35.855Z,100187.00
2022-10-15T13:39:08.979Z,100185.00
2022-10-15T13:41:40.280Z,100182.00
2022-10-15T13:44:21.992Z,100190.00
2022-10-15T13:46:50.526Z,100170.00
2022-10-15T13:49:20.419Z,100176.00
2022-10-15T13:51:52.766Z,100184.00
2022-10-15T13:54:26.460Z,100202.00
2022-10-15T13:56:58.754Z,100197.00
2022-10-15T13:59:30.481Z,100203.00
2022-10-15T14:02:01.836Z,100188.00
2022-10-15T14:04:32.698Z,100138.00
2022-10-15T14:07:06.385Z,100196.00
2022-10-15T14:09:38.641Z,100203.00
2022-10-15T14:12:09.001Z,100187.00
2022-10-15T14:14:41.439Z,100191.00
2022-10-15T14:17:14.356Z,100196.00
2022-10-15T14:19:54.536Z,100192.00
2022-10-15T14:22:31.625Z,100192.00
2022-10-15T14:25:01.952Z,100192.00
2022-10-15T14:27:30.809Z,100193.00
2022-10-15T14:30:01.303Z,100192.00
2022-10-15T14:32:32.042Z,100191.00
2022-10-15T14:35:02.071Z,100203.00
2022-10-15T14:37:42.606Z,100196.00
2022-10-15T14:40:21.457Z,100193.00
2022-10-15T14:43:04.076Z,100198.00
2022-10-15T14:45:39.298Z,100208.00
2022-10-15T14:48:14.057Z,100199.00
2022-10-15T14:50:44.623Z,100207.00
2022-10-15T14:53:20.745Z,100201.00
2022-10-15T14:55:54.387Z,100200.00
2022-10-15T14:58:25.461Z,100204.00
2022-10-15T15:00:59.920Z,100207.00
2022-10-15T15:03:31.806Z,100200.00
2022-10-15T15:06:00.049Z,100196.00
2022-10-15T15:08:28.257Z,100205.00
2022-10-15T15:11:02.089Z,100199.00
2022-10-15T15:13:33.641Z,100206.00
2022-10-15T15:16:03.589Z,100204.00
2022-10-15T15:18:31.636Z,100213.00
2022-10-15T15:21:06.466Z,100203.00
2022-10-15T15:23:36.192Z,100212.00
2022-10-15T15:26:05.674Z,100209.00
2022-10-15T15:28:33.931Z,100213.00
2022-10-15T15:31:05.574Z,100202.00
2022-10-15T15:33:35.389Z,100202.00
2022-10-15T15:36:08.423Z,100212.00
2022-10-15T15:41:16.560Z,100218.00
2022-10-15T15:43:45.620Z,100200.00
2022-10-15T15:46:14.410Z,100204.00
2022-10-15T15:48:43.213Z,100206.00
2022-10-15T15:51:21.543Z,100203.00
2022-10-15T15:53:49.724Z,100213.00
2022-10-15T15:56:19.390Z,100207.00
2022-10-15T15:58:50.151Z,100199.00
2022-10-15T16:01:18.373Z,100208.00
2022-10-15T16:03:46.454Z,100219.00
2022-10-15T16:06:14.563Z,100219.00
2022-10-15T16:08:42.572Z,100215.00
2022-10-15T16:11:10.641Z,100218.00
2022-10-15T16:13:48.962Z,100222.00
2022-10-15T16:16:17.174Z,100226.00
2022-10-15T16:18:45.233Z,100222.00
2022-10-15T16:21:13.153Z,100226.00
2022-10-15T16:23:42.277Z,100227.00
2022-10-15T16:26:10.270Z,100227.00
2022-10-15T16:28:38.396Z,100233.00
2022-10-15T16:31:18.927Z,100229.00
2022-10-15T16:33:47.491Z,100215.00
2022-10-15T16:36:16.405Z,100222.00
2022-10-15T16:38:47.667Z,100218.00
2022-10-15T16:41:18.727Z,100224.00
2022-10-15T16:43:48.283Z,100225.00
2022-10-15T16:46:19.567Z,100228.00
2022-10-15T16:48:53.431Z,100235.00
2022-10-15T16:51:22.924Z,100232.00
2022-10-15T16:53:52.415Z,100232.00
2022-10-15T16:56:23.997Z,100249.00
2022-10-15T16:58:54.859Z,100251.00
2022-10-15T17:01:27.178Z,100249.00
2022-10-15T17:03:55.868Z,100248.00
2022-10-15T17:06:29.190Z,100255.00
2022-10-15T17:08:59.959Z,100255.00
2022-10-15T17:11:31.142Z,100257.00
2022-10-15T17:14:03.654Z,100271.00
2022-10-15T17:16:35.513Z,100269.00
2022-10-15T17:19:04.417Z,100265.00
2022-10-15T17:21:33.056Z,100276.00
2022-10-15T17:24:05.404Z,100285.00
2022-10-15T17:26:38.342Z,100270.00
2022-10-15T17:29:10.086Z,100275.00
2022-10-15T17:31:40.043Z,100275.00
2022-10-15T17:34:12.292Z,100265.00
2022-10-15T17:36:45.318Z,100280.00
2022-10-15T17:39:16.000Z,100290.00
2022-10-15T17:41:44.896Z,100287.00
2022-10-15T17:44:13.176Z,100282.00
2022-10-15T17:46:42.975Z,100275.00
2022-10-15T17:49:11.279Z,100283.00
2022-10-15T17:51:39.924Z,100286.00
2022-10-15T17:54:07.958Z,100277.00
2022-10-15T17:56:38.330Z,100266.00
2022-10-15T17:59:10.337Z,100277.00
2022-10-15T18:01:59.860Z,100272.00
2022-10-15T18:04:29.371Z,100268.00
2022-10-15T18:06:57.491Z,100265.00
2022-10-15T18:09:25.773Z,100252.00
2022-10-15T18:11:53.772Z,100272.00
2022-10-15T18:14:21.958Z,100280.00
2022-10-15T18:16:51.446Z,100281.00
2022-10-15T18:19:20.240Z,100258.00
2022-10-15T18:21:49.620Z,100283.00
2022-10-15T18:24:21.165Z,100285.00
2022-10-15T18:26:50.276Z,100281.00
2022-10-15T18:29:18.734Z,100287.00
2022-10-15T18:31:47.755Z,100280.00
2022-10-15T18:34:19.967Z,100286.00
2022-10-15T18:36:47.984Z,100284.00
2022-10-15T18:39:16.003Z,100289.00
2022-10-15T18:44:21.454Z,100296.00
2022-10-15T18:46:49.474Z,100292.00
2022-10-15T18:49:21.585Z,100296.00
2022-10-15T18:51:51.760Z,100309.00
2022-10-15T18:54:20.761Z,100303.00
2022-10-15T18:56:48.985Z,100277.00
2022-10-15T18:59:16.941Z,100293.00
2022-10-15T19:01:45.003Z,100298.00
2022-10-15T19:04:19.608Z,100296.00
2022-10-15T19:06:50.905Z,100298.00
2022-10-15T19:09:22.295Z,100275.00
2022-10-15T19:11:53.969Z,100293.00
2022-10-15T19:14:22.987Z,100289.00
2022-10-15T19:16:52.195Z,100287.00
2022-10-15T19:19:24.462Z,100286.00
2022-10-15T19:21:55.774Z,100274.00
2022-10-15T19:24:25.208Z,100288.00
2022-10-15T19:26:53.696Z,100289.00
2022-10-15T19:29:21.848Z,100299.00
2022-10-15T19:31:50.975Z,100296.00
2022-10-15T19:34:19.140Z,100296.00
2022-10-15T19:36:50.809Z,100311.00
2022-10-15T19:39:21.981Z,100304.00
2022-10-15T19:41:51.616Z,100300.00
2022-10-15T19:44:24.948Z,100314.00
2022-10-15T19:46:53.449Z,100311.00
2022-10-15T19:49:21.876Z,100289.00
2022-10-15T19:51:51.381Z,100298.00
2022-10-15T19:54:19.417Z,100298.00
2022-10-15T19:56:47.461Z,100295.00
2022-10-15T19:59:16.806Z,100298.00
2022-10-15T20:01:45.025Z,100306.00
2022-10-15T20:04:13.395Z,100291.00
2022-10-15T20:06:41.414Z,100299.00
2022-10-15T20:09:10.828Z,100304.00
2022-10-15T20:11:39.244Z,100317.00
2022-10-15T20:14:07.297Z,100314.00
2022-10-15T20:16:35.292Z,100334.00
2022-10-15T20:19:03.924Z,100340.00
2022-10-15T20:21:32.539Z,100347.00
2022-10-15T20:24:03.809Z,100338.00
2022-10-15T20:26:33.485Z,100352.00
2022-10-15T20:29:02.030Z,100349.00
2022-10-15T20:31:32.951Z,100347.00
2022-10-15T20:34:02.012Z,100333.00
2022-10-15T20:36:30.528Z,100336.00
2022-10-15T20:39:00.617Z,100315.00
2022-10-15T20:41:29.628Z,100344.00
2022-10-15T20:43:59.000Z,100347.00
2022-10-15T20:46:34.104Z,100347.00
2022-10-15T20:49:09.371Z,100339.00
2022-10-15T20:51:41.184Z,100349.00
2022-10-15T20:54:10.899Z,100350.00
2022-10-15T20:56:39.773Z,100355.00
2022-10-15T20:59:09.763Z,100358.00
